createdAt,value
2018-12-03T00:03:03.317Z,81.13
2018-12-03T00:06:06.882Z,81.61
2018-12-03T00:09:10.117Z,82.14
2018-12-03T00:12:13.683Z,82.28
2018-12-03T00:15:16.925Z,82.17
2018-12-03T00:18:20.480Z,82.27
2018-12-03T00:21:23.983Z,82.28
2018-12-03T00:24:27.214Z,82.39
2018-12-03T00:27:30.441Z,82.55
2018-12-03T00:30:33.669Z,82.54
2018-12-03T00:33:36.958Z,82.45
2018-12-03T00:36:40.464Z,82.12
2018-12-03T00:39:43.699Z,82.33
2018-12-03T00:42:46.931Z,82.52
2018-12-03T00:45:50.159Z,83.19
2018-12-03T00:48:53.657Z,83.67
2018-12-03T00:51:57.170Z,84.01
2018-12-03T00:55:00.407Z,83.82
2018-12-03T00:58:03.953Z,83.55
2018-12-03T01:01:07.183Z,83.81
2018-12-03T01:04:10.424Z,84.04
2018-12-03T01:07:13.720Z,83.79
2018-12-03T01:10:16.956Z,84.01
2018-12-03T01:13:20.194Z,84.69
2018-12-03T01:16:23.422Z,84.57
2018-12-03T01:19:26.665Z,84.54
2018-12-03T01:22:30.230Z,84.95
2018-12-03T01:25:33.466Z,84.86
2018-12-03T01:28:36.732Z,84.59
2018-12-03T01:31:39.927Z,84.48
2018-12-03T01:34:43.166Z,84.48
2018-12-03T01:37:46.390Z,84.32
2018-12-03T01:40:49.631Z,84.65
2018-12-03T01:43:52.864Z,84.63
2018-12-03T01:46:56.402Z,84.76
2018-12-03T01:49:59.644Z,84.76
2018-12-03T01:53:02.876Z,84.70
2018-12-03T01:56:06.185Z,84.86
2018-12-03T01:59:09.436Z,85.02
2018-12-03T02:02:12.988Z,84.75
2018-12-03T02:05:16.300Z,84.09
2018-12-03T02:08:19.525Z,84.27
2018-12-03T02:11:22.764Z,83.95
2018-12-03T02:14:26.000Z,83.99
2018-12-03T02:17:29.225Z,83.94
2018-12-03T02:20:32.769Z,83.82
2018-12-03T02:23:35.996Z,83.54
2018-12-03T02:26:39.228Z,84.01
2018-12-03T02:29:43.297Z,84.09
2018-12-03T02:32:46.783Z,83.84
2018-12-03T02:35:50.023Z,83.91
2018-12-03T02:38:53.326Z,84.00
2018-12-03T02:41:56.872Z,83.82
2018-12-03T02:45:00.388Z,84.04
2018-12-03T02:48:03.608Z,83.95
2018-12-03T02:51:06.846Z,83.80
2018-12-03T02:54:10.086Z,83.79
2018-12-03T02:57:13.313Z,83.63
2018-12-03T03:00:16.967Z,83.59
2018-12-03T03:03:20.194Z,83.58
2018-12-03T03:06:23.433Z,83.64
2018-12-03T03:09:26.958Z,83.13
2018-12-03T03:12:30.184Z,82.59
2018-12-03T03:15:33.758Z,82.57
2018-12-03T03:18:36.989Z,82.43
2018-12-03T03:21:40.226Z,82.31
2018-12-03T03:24:43.472Z,82.38
2018-12-03T03:27:46.945Z,82.50
2018-12-03T03:30:50.464Z,82.75
2018-12-03T03:33:53.697Z,82.51
2018-12-03T03:36:56.914Z,82.61
2018-12-03T03:40:00.167Z,82.11
2018-12-03T03:43:03.386Z,81.76
2018-12-03T03:46:06.619Z,81.95
2018-12-03T03:49:09.853Z,81.94
2018-12-03T03:52:13.319Z,82.17
2018-12-03T03:55:16.559Z,82.17
2018-12-03T03:58:19.788Z,81.75
2018-12-03T04:01:23.023Z,81.87
2018-12-03T04:04:26.265Z,81.45
2018-12-03T04:07:29.485Z,81.34
2018-12-03T04:10:32.718Z,81.79
2018-12-03T04:13:35.951Z,82.45
2018-12-03T04:16:39.491Z,83.26
2018-12-03T04:19:42.724Z,84.15
2018-12-03T04:22:46.301Z,84.32
2018-12-03T04:25:49.534Z,84.75
2018-12-03T04:28:52.764Z,85.05
2018-12-03T04:31:56.293Z,85.04
2018-12-03T04:34:59.527Z,85.26
2018-12-03T04:38:02.752Z,85.25
2018-12-03T04:41:05.991Z,85.30
2018-12-03T04:44:09.478Z,85.56
2018-12-03T04:47:12.712Z,85.12
2018-12-03T04:50:15.951Z,84.80
2018-12-03T04:53:19.181Z,84.88
2018-12-03T04:56:22.424Z,85.27
2018-12-03T04:59:25.656Z,85.60
2018-12-03T05:02:29.160Z,85.13
2018-12-03T05:05:32.397Z,85.04
2018-12-03T05:08:35.971Z,84.55
2018-12-03T05:11:39.562Z,84.34
2018-12-03T05:14:42.791Z,84.13
2018-12-03T05:17:46.026Z,84.35
2018-12-03T05:20:49.262Z,84.20
2018-12-03T05:23:52.752Z,84.23
2018-12-03T05:26:55.983Z,84.16
2018-12-03T05:29:59.555Z,84.30
2018-12-03T05:33:03.154Z,84.43
2018-12-03T05:36:06.389Z,84.02
2018-12-03T05:39:09.623Z,84.23
2018-12-03T05:42:12.860Z,84.53
2018-12-03T05:45:16.346Z,84.36
2018-12-03T05:48:19.846Z,84.34
2018-12-03T05:51:23.076Z,83.90
2018-12-03T05:54:26.646Z,83.91
2018-12-03T05:57:29.874Z,83.88
2018-12-03T06:00:33.447Z,83.54
2018-12-03T06:03:36.673Z,83.45
2018-12-03T06:06:39.909Z,83.16
2018-12-03T06:09:43.441Z,83.53
2018-12-03T06:12:47.044Z,83.73
2018-12-03T06:15:50.546Z,83.42
2018-12-03T06:18:54.145Z,83.66
2018-12-03T06:21:57.452Z,83.75
2018-12-03T06:25:00.686Z,83.66
2018-12-03T06:28:04.789Z,84.19
2018-12-03T06:31:08.032Z,83.88
2018-12-03T06:34:11.559Z,84.06
2018-12-03T06:37:15.064Z,84.20
2018-12-03T06:40:18.554Z,83.87
2018-12-03T06:43:21.782Z,83.34
2018-12-03T06:46:25.023Z,83.09
2018-12-03T06:49:28.550Z,83.12
2018-12-03T06:52:31.779Z,82.71
2018-12-03T06:55:35.020Z,82.94
2018-12-03T06:58:38.549Z,82.59
2018-12-03T07:01:42.049Z,82.51
2018-12-03T07:04:45.284Z,82.49
2018-12-03T07:07:48.516Z,82.41
2018-12-03T07:10:51.754Z,82.53
2018-12-03T07:13:54.982Z,82.69
2018-12-03T07:16:58.217Z,82.50
2018-12-03T07:20:01.450Z,82.50
2018-12-03T07:23:04.855Z,82.33
2018-12-03T07:26:08.325Z,82.47
2018-12-03T07:29:11.823Z,82.15
2018-12-03T07:32:15.327Z,81.74
2018-12-03T07:35:18.557Z,81.26
2018-12-03T07:38:22.126Z,80.87
2018-12-03T07:41:25.361Z,80.96
2018-12-03T07:44:28.926Z,81.38
2018-12-03T07:47:32.429Z,81.66
2018-12-03T07:50:35.661Z,82.00
2018-12-03T07:53:39.227Z,82.40
2018-12-03T07:56:42.464Z,83.39
2018-12-03T07:59:46.025Z,82.93
2018-12-03T08:02:49.254Z,83.06
2018-12-03T08:05:52.493Z,83.75
2018-12-03T08:08:55.718Z,83.45
2018-12-03T08:11:58.952Z,83.64
2018-12-03T08:15:02.194Z,83.44
2018-12-03T08:18:06.203Z,82.81
2018-12-03T08:21:09.437Z,82.61
2018-12-03T08:24:12.665Z,81.57
2018-12-03T08:27:16.214Z,81.63
2018-12-03T08:30:19.711Z,81.12
2018-12-03T08:33:22.940Z,81.35
2018-12-03T08:36:26.172Z,81.72
2018-12-03T08:39:29.395Z,81.76
2018-12-03T08:42:32.913Z,81.28
2018-12-03T08:45:36.140Z,81.52
2018-12-03T08:48:39.707Z,80.95
2018-12-03T08:51:42.939Z,80.93
2018-12-03T08:54:46.170Z,81.00
2018-12-03T08:57:49.406Z,80.98
2018-12-03T09:00:52.630Z,80.82
2018-12-03T09:03:55.866Z,80.68
2018-12-03T09:06:59.106Z,79.66
2018-12-03T09:10:02.333Z,79.02
2018-12-03T09:13:06.067Z,79.00
2018-12-03T09:16:09.334Z,79.28
2018-12-03T09:19:12.874Z,79.65
2018-12-03T09:22:16.105Z,79.69
2018-12-03T09:25:19.673Z,79.38
2018-12-03T09:28:23.003Z,79.36
2018-12-03T09:31:26.474Z,79.72
2018-12-03T09:34:29.721Z,79.78
2018-12-03T09:37:32.960Z,79.95
2018-12-03T09:40:36.467Z,80.50
2018-12-03T09:43:42.228Z,80.50
2018-12-03T09:46:45.724Z,80.42
2018-12-03T09:49:48.955Z,80.95
2018-12-03T09:52:52.336Z,81.46
2018-12-03T09:55:55.568Z,82.32
2018-12-03T09:58:58.804Z,83.01
2018-12-03T10:02:02.109Z,83.54
2018-12-03T10:05:08.778Z,84.00
2018-12-03T10:08:12.286Z,83.57
2018-12-03T10:11:15.518Z,83.90
2018-12-03T10:14:18.761Z,83.77
2018-12-03T10:17:22.275Z,83.69
2018-12-03T10:20:25.506Z,83.59
2018-12-03T10:23:28.756Z,83.88
2018-12-03T10:26:31.979Z,82.70
2018-12-03T10:29:35.469Z,81.57
2018-12-03T10:32:38.695Z,81.51
2018-12-03T10:35:41.922Z,80.42
2018-12-03T10:38:45.153Z,79.47
2018-12-03T10:41:52.751Z,78.96
2018-12-03T10:44:55.989Z,78.30
2018-12-03T10:47:59.551Z,76.88
2018-12-03T10:51:03.162Z,75.28
2018-12-03T10:54:06.396Z,74.64
2018-12-03T10:57:09.623Z,74.16
2018-12-03T11:00:14.882Z,74.48
2018-12-03T11:03:20.334Z,73.46
2018-12-03T11:06:23.944Z,73.26
2018-12-03T11:09:32.988Z,72.49
2018-12-03T11:12:32.996Z,72.39
2018-12-03T11:15:36.305Z,71.58
2018-12-03T11:18:39.536Z,72.04
2018-12-03T11:21:43.091Z,73.17
2018-12-03T11:24:46.330Z,73.48
2018-12-03T11:27:49.708Z,73.85
2018-12-03T11:30:52.943Z,73.51
2018-12-03T11:33:56.180Z,73.26
2018-12-03T11:36:59.784Z,73.98
2018-12-03T11:40:10.758Z,73.50
2018-12-03T11:43:13.992Z,73.54
2018-12-03T11:46:17.557Z,73.43
2018-12-03T11:49:21.062Z,73.50
2018-12-03T11:52:24.670Z,73.39
2018-12-03T11:55:28.166Z,72.64
2018-12-03T11:58:31.411Z,72.42
2018-12-03T12:01:34.639Z,71.33
2018-12-03T12:04:38.160Z,70.86
2018-12-03T12:07:42.466Z,71.87
2018-12-03T12:10:45.836Z,72.09
2018-12-03T12:13:49.077Z,72.16
2018-12-03T12:16:52.306Z,71.89
2018-12-03T12:19:55.547Z,72.10
2018-12-03T12:22:58.774Z,72.45
2018-12-03T12:26:02.013Z,72.06
2018-12-03T12:29:05.976Z,72.19
2018-12-03T12:32:09.223Z,71.81
2018-12-03T12:35:12.533Z,71.90
2018-12-03T12:38:15.759Z,71.46
2018-12-03T12:41:18.989Z,71.01
2018-12-03T12:44:22.554Z,70.71
2018-12-03T12:47:25.851Z,71.01
2018-12-03T12:50:29.085Z,70.58
2018-12-03T12:53:32.650Z,70.51
2018-12-03T12:56:36.155Z,70.49
2018-12-03T12:59:39.398Z,70.41
2018-12-03T13:02:42.620Z,70.36
2018-12-03T13:05:45.858Z,70.40
2018-12-03T13:08:49.134Z,72.72
2018-12-03T13:11:52.638Z,75.64
2018-12-03T13:14:56.137Z,75.80
2018-12-03T13:17:59.363Z,76.81
2018-12-03T13:21:02.599Z,77.98
2018-12-03T13:24:06.238Z,78.68
2018-12-03T13:27:09.737Z,79.16
2018-12-03T13:30:13.046Z,79.62
2018-12-03T13:33:16.536Z,79.70
2018-12-03T13:36:20.039Z,79.34
2018-12-03T13:39:23.544Z,79.54
2018-12-03T13:42:26.783Z,79.89
2018-12-03T13:45:30.336Z,79.90
2018-12-03T13:48:33.562Z,79.39
2018-12-03T13:51:36.798Z,80.26
2018-12-03T13:54:40.028Z,80.74
2018-12-03T13:57:43.631Z,80.44
2018-12-03T14:00:47.130Z,79.78
2018-12-03T14:03:52.583Z,79.98
2018-12-03T14:06:55.965Z,79.81
2018-12-03T14:10:00.097Z,80.20
2018-12-03T14:13:03.401Z,79.26
2018-12-03T14:16:07.510Z,79.31
2018-12-03T14:19:10.881Z,79.70
2018-12-03T14:22:16.144Z,78.99
2018-12-03T14:25:19.350Z,78.06
2018-12-03T14:28:22.591Z,77.41
2018-12-03T14:31:25.824Z,77.67
2018-12-03T14:34:29.051Z,77.73
2018-12-03T14:37:32.643Z,77.87
2018-12-03T14:40:35.867Z,78.01
2018-12-03T14:43:39.109Z,78.35
2018-12-03T14:46:42.348Z,77.94
2018-12-03T14:49:45.832Z,78.35
2018-12-03T14:52:49.327Z,78.28
2018-12-03T14:55:52.555Z,78.14
2018-12-03T14:58:56.124Z,78.17
2018-12-03T15:01:59.356Z,78.34
2018-12-03T15:05:02.624Z,78.32
2018-12-03T15:08:05.845Z,78.45
2018-12-03T15:11:09.422Z,78.14
2018-12-03T15:14:12.917Z,78.09
2018-12-03T15:17:16.152Z,78.34
2018-12-03T15:20:19.722Z,78.46
2018-12-03T15:23:22.956Z,78.27
2018-12-03T15:26:26.546Z,78.21
2018-12-03T15:29:30.026Z,78.59
2018-12-03T15:32:33.530Z,78.61
2018-12-03T15:35:36.752Z,79.09
2018-12-03T15:38:39.990Z,78.94
2018-12-03T15:41:43.217Z,78.98
2018-12-03T15:44:46.530Z,78.90
2018-12-03T15:47:49.765Z,78.98
2018-12-03T15:50:53.000Z,79.14
2018-12-03T15:53:56.498Z,78.95
2018-12-03T15:56:59.997Z,79.11
2018-12-03T16:00:04.526Z,79.34
2018-12-03T16:03:07.759Z,79.73
2018-12-03T16:06:10.983Z,80.16
2018-12-03T16:09:15.034Z,80.44
2018-12-03T16:12:18.535Z,81.52
2018-12-03T16:15:22.090Z,82.03
2018-12-03T16:18:25.537Z,81.92
2018-12-03T16:21:28.760Z,82.27
2018-12-03T16:24:31.998Z,82.07
2018-12-03T16:27:35.222Z,82.39
2018-12-03T16:30:38.463Z,82.58
2018-12-03T16:33:42.020Z,82.36
2018-12-03T16:36:45.252Z,82.84
2018-12-03T16:39:49.028Z,82.96
2018-12-03T16:42:52.627Z,83.44
2018-12-03T16:45:56.132Z,83.59
2018-12-03T16:48:59.808Z,83.32
2018-12-03T16:52:03.237Z,83.55
2018-12-03T16:55:06.475Z,83.95
2018-12-03T16:58:09.707Z,84.13
2018-12-03T17:01:12.939Z,84.16
2018-12-03T17:04:16.222Z,84.56
2018-12-03T17:07:19.511Z,84.84
2018-12-03T17:10:22.766Z,84.96
2018-12-03T17:13:26.423Z,84.90
2018-12-03T17:16:29.925Z,84.71
2018-12-03T17:19:33.162Z,84.69
2018-12-03T17:22:36.382Z,85.34
2018-12-03T17:25:39.624Z,86.03
2018-12-03T17:28:43.131Z,86.20
2018-12-03T17:31:46.617Z,86.12
2018-12-03T17:34:49.857Z,86.31
2018-12-03T17:37:53.095Z,86.49
2018-12-03T17:40:56.725Z,86.16
2018-12-03T17:44:00.220Z,86.14
2018-12-03T17:47:03.823Z,86.01
2018-12-03T17:50:07.055Z,86.36
2018-12-03T17:53:10.288Z,86.58
2018-12-03T17:56:13.816Z,86.01
2018-12-03T17:59:17.316Z,85.70
2018-12-03T18:02:20.818Z,85.52
2018-12-03T18:05:24.321Z,85.28
2018-12-03T18:08:27.549Z,85.80
2018-12-03T18:11:30.785Z,85.37
2018-12-03T18:14:34.032Z,85.97
2018-12-03T18:17:37.506Z,85.77
2018-12-03T18:20:41.008Z,85.64
2018-12-03T18:23:44.241Z,85.42
2018-12-03T18:26:47.484Z,85.74
2018-12-03T18:29:51.249Z,85.53
2018-12-03T18:32:54.483Z,85.59
2018-12-03T18:35:58.014Z,85.34
2018-12-03T18:39:01.249Z,85.68
2018-12-03T18:42:05.026Z,85.31
2018-12-03T18:45:08.260Z,85.47
2018-12-03T18:48:11.809Z,85.47
2018-12-03T18:51:15.040Z,85.27
2018-12-03T18:54:18.269Z,85.95
2018-12-03T18:57:21.511Z,85.86
2018-12-03T19:00:25.202Z,86.48
2018-12-03T19:03:28.695Z,87.24
2018-12-03T19:06:31.944Z,83.99
2018-12-03T19:09:35.173Z,83.95
2018-12-03T19:12:38.713Z,84.46
2018-12-03T19:15:42.205Z,84.40
2018-12-03T19:18:45.439Z,84.13
2018-12-03T19:21:48.675Z,84.43
2018-12-03T19:24:52.200Z,83.89
2018-12-03T19:27:55.527Z,83.99
2018-12-03T19:30:59.108Z,83.41
2018-12-03T19:34:02.338Z,84.13
2018-12-03T19:37:05.578Z,82.94
2018-12-03T19:40:08.809Z,82.65
2018-12-03T19:43:12.041Z,81.14
2018-12-03T19:46:15.277Z,80.88
2018-12-03T19:49:18.505Z,80.86
2018-12-03T19:52:21.742Z,80.70
2018-12-03T19:55:25.385Z,81.46
2018-12-03T19:58:29.000Z,81.75
2018-12-03T20:01:32.301Z,81.26
2018-12-03T20:04:50.250Z,81.89
2018-12-03T20:07:53.819Z,82.92
2018-12-03T20:10:57.119Z,82.70
2018-12-03T20:14:00.744Z,82.28
2018-12-03T20:17:04.017Z,82.48
2018-12-03T20:20:08.304Z,82.20
2018-12-03T20:23:11.964Z,80.94
2018-12-03T20:26:15.277Z,80.43
2018-12-03T20:29:18.716Z,79.81
2018-12-03T20:32:22.148Z,79.60
2018-12-03T20:35:25.660Z,78.92
2018-12-03T20:38:29.338Z,79.76
2018-12-03T20:41:32.608Z,79.78
2018-12-03T20:44:36.642Z,79.62
2018-12-03T20:47:39.983Z,78.84
2018-12-03T20:50:43.773Z,79.64
2018-12-03T20:53:47.276Z,79.28
2018-12-03T20:56:50.519Z,78.70
2018-12-03T20:59:54.090Z,78.95
2018-12-03T21:02:57.329Z,79.44
2018-12-03T21:06:00.578Z,79.78
2018-12-03T21:09:05.197Z,80.06
2018-12-03T21:12:08.865Z,79.98
2018-12-03T21:15:12.113Z,80.01
2018-12-03T21:18:15.707Z,79.74
2018-12-03T21:21:19.218Z,80.02
2018-12-03T21:24:22.464Z,80.69
2018-12-03T21:27:25.709Z,79.95
2018-12-03T21:30:28.981Z,78.87
2018-12-03T21:33:32.495Z,79.47
2018-12-03T21:36:35.739Z,79.59
2018-12-03T21:39:39.302Z,78.43
2018-12-03T21:42:42.552Z,79.46
2018-12-03T21:45:45.794Z,79.41
2018-12-03T21:48:49.289Z,80.12
2018-12-03T21:51:52.528Z,81.13
2018-12-03T21:54:56.211Z,80.53
2018-12-03T21:57:59.424Z,81.40
2018-12-03T22:01:02.999Z,81.84
2018-12-03T22:04:06.493Z,81.10
2018-12-03T22:07:09.997Z,80.87
2018-12-03T22:10:13.227Z,79.97
2018-12-03T22:13:16.506Z,80.45
2018-12-03T22:16:19.701Z,80.45
2018-12-03T22:19:23.275Z,80.49
2018-12-03T22:22:26.512Z,80.24
2018-12-03T22:25:29.744Z,80.77
2018-12-03T22:28:32.984Z,80.75
2018-12-03T22:31:36.212Z,81.49
2018-12-03T22:34:40.996Z,81.00
2018-12-03T22:37:44.383Z,81.20
2018-12-03T22:40:47.889Z,80.72
2018-12-03T22:43:51.399Z,81.92
2018-12-03T22:46:54.634Z,83.05
2018-12-03T22:49:58.187Z,83.27
2018-12-03T22:53:01.433Z,83.16
2018-12-03T22:56:04.992Z,83.16
2018-12-03T22:59:08.231Z,83.20
2018-12-03T23:02:11.465Z,82.87
2018-12-03T23:05:14.988Z,82.90
2018-12-03T23:08:18.215Z,83.35
2018-12-03T23:11:21.454Z,82.04
2018-12-03T23:14:24.977Z,81.38
2018-12-03T23:17:28.475Z,81.51
2018-12-03T23:20:31.981Z,82.08
2018-12-03T23:23:35.217Z,82.63
2018-12-03T23:26:38.785Z,82.43
2018-12-03T23:29:42.282Z,81.75
2018-12-03T23:33:20.878Z,81.71
2018-12-03T23:36:24.160Z,81.85
2018-12-03T23:39:27.426Z,82.51
2018-12-03T23:42:30.677Z,81.99
2018-12-03T23:45:33.949Z,81.47
2018-12-03T23:48:37.186Z,81.16
2018-12-03T23:51:40.445Z,82.69
2018-12-03T23:54:43.767Z,83.48
2018-12-03T23:57:47.073Z,83.65
